Time;durP1;ratioP1;P1;durP2;ratioP2;P2;SDS_P1;SDS_P2;PMS_P1;PMS_P2;Temp;Humidity;BMP_temperature;BMP_pressure;BME280_temperature;BME280_humidity;BME280_pressure;Samples;Min_cycle;Max_cycle;Signal;HPM_P1;HPM_P2
2022/01/17 00:00:37;;;;;;;40.40;18.87;;;;;;;1.32;93.86;99771.59;1815456;79;25607;-71
2022/01/17 00:03:05;;;;;;;39.80;18.73;;;;;;;1.33;94.05;99766.51;1881572;76;33008;-71
2022/01/17 00:05:32;;;;;;;35.15;19.52;;;;;;;1.34;93.92;99760.92;1815395;78;25601;-71
2022/01/17 00:07:59;;;;;;;38.20;19.65;;;;;;;1.37;94.01;99751.62;1795523;78;25628;-71
2022/01/17 00:10:25;;;;;;;38.80;20.65;;;;;;;1.36;94.22;99741.47;1815457;79;25713;-71
2022/01/17 00:12:57;;;;;;;41.80;19.60;;;;;;;1.37;93.95;99736.42;1827964;78;25215;-72
2022/01/17 00:15:40;;;;;;;39.73;19.50;;;;;;;1.38;94.09;99737.22;1815314;79;27977;-69
2022/01/17 00:20:39;;;;;;;44.08;21.42;;;;;;;1.40;94.19;99733.23;1815359;79;25635;-70
2022/01/17 00:23:06;;;;;;;39.10;21.45;;;;;;;1.40;94.28;99724.45;1827808;78;25631;-70
2022/01/17 00:25:33;;;;;;;41.23;20.82;;;;;;;1.40;94.09;99714.59;1809849;79;26239;-71
2022/01/17 00:27:59;;;;;;;44.80;21.82;;;;;;;1.41;94.37;99714.84;1827683;78;27217;-71
2022/01/17 00:30:26;;;;;;;47.62;22.30;;;;;;;1.43;95.02;99702.58;1815392;79;25657;-71
2022/01/17 00:32:52;;;;;;;45.85;20.75;;;;;;;1.42;95.40;99688.47;1827975;78;25567;-71
2022/01/17 00:35:19;;;;;;;47.98;21.33;;;;;;;1.45;94.80;99676.50;1815511;79;26223;-72
2022/01/17 00:37:46;;;;;;;42.15;21.42;;;;;;;1.45;95.46;99693.28;1795801;78;25547;-72
2022/01/17 00:40:13;;;;;;;41.18;21.20;;;;;;;1.46;94.89;99669.58;1815486;79;27336;-72
2022/01/17 00:42:40;;;;;;;44.98;22.20;;;;;;;1.46;95.41;99669.58;1795236;79;25186;-72
2022/01/17 00:45:11;;;;;;;49.80;22.35;;;;;;;1.46;95.15;99681.56;1815441;79;25566;-72
2022/01/17 00:47:37;;;;;;;41.70;21.20;;;;;;;1.47;95.49;99670.36;1781469;80;26286;-72
2022/01/17 00:50:06;;;;;;;46.65;22.85;;;;;;;1.48;94.91;99661.28;1795355;79;25518;-71
2022/01/17 00:52:33;;;;;;;48.03;23.07;;;;;;;1.51;95.17;99672.76;1815621;79;27333;-71
2022/01/17 00:54:59;;;;;;;53.92;24.23;;;;;;;1.52;95.31;99654.38;1795148;79;25725;-71
2022/01/17 00:57:26;;;;;;;42.58;21.30;;;;;;;1.53;95.96;99651.96;1815367;79;25543;-72
2022/01/17 00:59:52;;;;;;;44.00;21.68;;;;;;;1.54;95.42;99647.45;1815335;79;25622;-72
2022/01/17 01:02:20;;;;;;;50.28;23.05;;;;;;;1.56;95.63;99647.44;1815314;79;25390;-72
2022/01/17 01:04:47;;;;;;;50.43;23.75;;;;;;;1.58;95.67;99643.19;1812172;78;27893;-72
2022/01/17 01:07:13;;;;;;;50.83;23.52;;;;;;;1.58;95.67;99650.64;1808964;79;25588;-72
2022/01/17 01:09:52;;;;;;;53.02;23.30;;;;;;;1.59;96.16;99634.13;1809096;79;25523;-72
2022/01/17 01:12:09;;;;;;;46.28;22.50;;;;;;;1.62;96.11;99627.73;1808770;79;25626;-72
2022/01/17 01:14:40;;;;;;;48.70;22.77;;;;;;;1.63;95.64;99640.52;1809217;79;25616;-71
2022/01/17 01:17:08;;;;;;;51.05;23.32;;;;;;;1.63;96.00;99629.31;1783272;80;27315;-71
2022/01/17 01:19:40;;;;;;;49.70;23.60;;;;;;;1.65;96.10;99631.20;1808541;79;25726;-72
2022/01/17 01:27:39;;;;;;;50.23;23.55;;;;;;;1.66;96.15;99618.67;1782135;80;25398;-72
2022/01/17 01:29:59;;;;;;;43.17;20.40;;;;;;;1.68;95.78;99597.87;1781363;80;27362;-70
2022/01/17 01:32:32;;;;;;;48.63;23.57;;;;;;;1.66;96.95;99598.13;1786291;80;25295;-70
2022/01/17 01:34:57;;;;;;;42.03;20.72;;;;;;;1.66;96.74;99594.12;1779654;79;25264;-70
2022/01/17 01:37:22;;;;;;;42.23;20.85;;;;;;;1.66;96.49;99592.00;1784580;80;25671;-70
2022/01/17 01:39:50;;;;;;;43.02;21.07;;;;;;;1.65;97.01;99579.73;1779216;80;25689;-70
2022/01/17 01:42:19;;;;;;;41.65;21.25;;;;;;;1.64;97.12;99590.94;1784640;80;28010;-70
2022/01/17 01:44:52;;;;;;;43.28;20.32;;;;;;;1.65;96.67;99570.40;1778996;80;25646;-70
2022/01/17 01:47:21;;;;;;;44.35;21.85;;;;;;;1.65;96.80;99567.22;1784689;80;25634;-70
2022/01/17 01:49:48;;;;;;;40.10;18.77;;;;;;;1.65;97.18;99552.56;1779065;80;25692;-74
2022/01/17 01:52:14;;;;;;;44.15;21.50;;;;;;;1.67;97.03;99556.30;1784676;80;25606;-71
2022/01/17 01:54:40;;;;;;;42.38;21.23;;;;;;;1.66;97.20;99553.35;1779140;80;27322;-71
2022/01/17 01:57:07;;;;;;;47.40;23.35;;;;;;;1.65;97.41;99556.56;1784470;80;25750;-71
2022/01/17 01:59:33;;;;;;;53.23;22.15;;;;;;;1.66;97.90;99554.68;1779115;80;25598;-71
2022/01/17 02:02:00;;;;;;;43.70;22.02;;;;;;;1.66;98.85;99549.35;1784581;80;25577;-73
2022/01/17 02:04:26;;;;;;;46.30;22.52;;;;;;;1.66;98.68;99550.69;1797413;77;25486;-73
2022/01/17 02:06:56;;;;;;;46.05;23.75;;;;;;;1.68;98.53;99528.55;1803774;77;26792;-73
2022/01/17 02:09:23;;;;;;;49.50;23.75;;;;;;;1.67;98.63;99534.97;1780051;79;25735;-73
2022/01/17 02:11:52;;;;;;;48.45;23.00;;;;;;;1.68;98.32;99505.34;1781539;80;25524;-72
2022/01/17 02:14:18;;;;;;;49.75;24.43;;;;;;;1.71;99.09;99509.89;1846766;77;25747;-72
2022/01/17 02:16:47;;;;;;;46.88;23.83;;;;;;;1.74;98.34;99516.00;1783208;80;25550;-72
2022/01/17 02:19:13;;;;;;;52.67;25.10;;;;;;;1.75;98.78;99525.06;1783261;80;27957;-72
2022/01/17 02:21:46;;;;;;;49.83;26.33;;;;;;;1.77;99.36;99498.95;1846670;77;25363;-72
2022/01/17 02:24:18;;;;;;;46.20;22.55;;;;;;;1.78;98.51;99488.53;1783226;80;25564;-72
2022/01/17 02:26:46;;;;;;;50.80;25.80;;;;;;;1.80;98.30;99485.60;1846745;77;25664;-72
2022/01/17 02:29:13;;;;;;;58.17;26.75;;;;;;;1.82;98.05;99493.61;1846827;77;25572;-72
2022/01/17 02:31:42;;;;;;;50.78;26.65;;;;;;;1.84;98.60;99477.34;1758952;80;27253;-72
2022/01/17 02:34:10;;;;;;;52.95;25.35;;;;;;;1.87;98.38;99466.11;1846780;77;25587;-72
2022/01/17 02:36:37;;;;;;;53.02;26.17;;;;;;;1.89;98.26;99454.66;1802464;79;25416;-72
2022/01/17 02:39:04;;;;;;;48.30;23.20;;;;;;;1.89;98.32;99469.33;1781518;80;25659;-71
2022/01/17 02:41:34;;;;;;;50.48;24.25;;;;;;;1.92;98.48;99463.97;1846803;77;25363;-71
2022/01/17 02:44:02;;;;;;;47.50;24.47;;;;;;;1.93;98.13;99462.38;1802451;79;27304;-72
2022/01/17 02:46:29;;;;;;;48.13;24.20;;;;;;;1.94;98.40;99455.16;1781378;80;25395;-73
2022/01/17 02:49:00;;;;;;;45.10;24.20;;;;;;;1.95;98.52;99431.43;1846784;77;25405;-72
2022/01/17 02:51:28;;;;;;;48.15;25.02;;;;;;;1.97;98.45;99433.28;1802473;79;25632;-73
2022/01/17 02:53:54;;;;;;;49.65;25.32;;;;;;;1.99;98.33;99417.80;1815403;79;25569;-73
2022/01/17 02:56:21;;;;;;;49.75;25.57;;;;;;;2.00;98.03;99411.41;1815346;78;27289;-73
2022/01/17 02:58:48;;;;;;;55.33;25.92;;;;;;;2.03;97.89;99418.86;1817083;77;25609;-73
2022/01/17 03:01:24;;;;;;;54.38;26.07;;;;;;;2.05;97.96;99420.72;1815279;78;25613;-73
2022/01/17 03:03:52;;;;;;;50.33;25.30;;;;;;;2.07;97.89;99411.11;1817037;79;25595;-73
2022/01/17 03:06:21;;;;;;;50.63;24.65;;;;;;;2.09;97.59;99391.62;1811173;78;25597;-73
2022/01/17 03:08:50;;;;;;;54.03;26.82;;;;;;;2.11;97.80;99386.28;1777179;80;27342;-73
2022/01/17 03:11:21;;;;;;;52.35;26.80;;;;;;;2.13;97.51;99383.31;1777281;80;25720;-73
2022/01/17 03:13:50;;;;;;;54.40;25.65;;;;;;;2.16;97.59;99386.26;1785100;80;25712;-73
2022/01/17 03:16:21;;;;;;;48.02;25.50;;;;;;;2.19;97.27;99389.69;1810776;79;25595;-73
2022/01/17 03:18:51;;;;;;;49.00;24.65;;;;;;;2.21;97.38;99358.22;1810751;79;25608;-73
2022/01/17 03:21:20;;;;;;;47.67;24.98;;;;;;;2.22;97.07;99354.45;1810661;79;27285;-73
2022/01/17 03:23:50;;;;;;;46.90;25.15;;;;;;;2.23;96.99;99353.39;1810758;79;25528;-73
2022/01/17 03:26:16;;;;;;;;;;;;;;;2.28;96.82;99359.21;1813390;79;25516;-71
2022/01/17 03:28:42;;;;;;;45.10;22.75;;;;;;;2.33;96.71;99345.05;1810655;79;26369;-72
2022/01/17 03:31:10;;;;;;;39.78;21.60;;;;;;;2.35;96.47;99353.57;1810700;79;25574;-72
2022/01/17 03:33:37;;;;;;;44.77;23.90;;;;;;;2.37;96.33;99350.11;1810657;79;27979;-72
2022/01/17 03:36:05;;;;;;;44.48;22.52;;;;;;;2.40;96.16;99338.86;1778985;79;25395;-72
2022/01/17 03:38:34;;;;;;;43.50;21.80;;;;;;;2.43;95.94;99340.97;1810651;79;25576;-72
2022/01/17 03:41:02;;;;;;;45.92;22.50;;;;;;;2.47;95.71;99337.20;1810778;79;25626;-72
2022/01/17 03:43:29;;;;;;;43.78;21.82;;;;;;;2.50;95.65;99352.13;1779151;79;25577;-72
2022/01/17 03:45:57;;;;;;;38.70;21.30;;;;;;;2.53;95.37;99344.91;1810687;79;27289;-72
2022/01/17 03:48:25;;;;;;;43.80;22.30;;;;;;;2.56;95.17;99344.90;1779104;79;25627;-72
2022/01/17 03:50:52;;;;;;;44.65;22.10;;;;;;;2.60;94.81;99337.91;1810659;79;25542;-72
2022/01/17 03:53:18;;;;;;;41.92;21.77;;;;;;;2.62;94.82;99326.41;1810660;79;25595;-72
2022/01/17 03:55:45;;;;;;;39.53;21.10;;;;;;;2.64;94.60;99318.13;1810833;79;25534;-72
2022/01/17 03:58:11;;;;;;;39.48;21.30;;;;;;;2.67;94.52;99322.36;1779460;79;27816;-72
2022/01/17 04:00:45;;;;;;;39.00;19.77;;;;;;;2.69;94.18;99308.22;1779381;79;25785;-72
2022/01/17 04:03:11;;;;;;;34.43;20.60;;;;;;;2.72;93.81;99298.28;1810814;79;25524;-72
2022/01/17 04:05:38;;;;;;;37.75;20.90;;;;;;;2.74;93.82;99293.48;1824052;77;25608;-72
2022/01/17 04:08:06;;;;;;;36.50;20.05;;;;;;;2.77;93.53;99284.88;1838116;77;25433;-72
2022/01/17 04:10:34;;;;;;;39.45;20.05;;;;;;;2.78;93.60;99270.47;1838082;77;27991;-73
2022/01/17 04:13:03;;;;;;;32.25;18.62;;;;;;;2.79;93.38;99269.92;1837979;78;25422;-73
2022/01/17 04:15:35;;;;;;;37.07;20.03;;;;;;;2.79;93.62;99264.06;1838311;77;25517;-73
2022/01/17 04:18:04;;;;;;;36.00;20.15;;;;;;;2.79;93.65;99244.03;1838063;77;25712;-72
2022/01/17 04:20:31;;;;;;;36.03;20.08;;;;;;;2.78;93.91;99234.96;1838217;78;25603;-73
2022/01/17 04:23:02;;;;;;;34.35;19.05;;;;;;;2.76;93.88;99223.77;1838014;78;27321;-73
2022/01/17 04:25:31;;;;;;;39.67;20.80;;;;;;;2.73;93.93;99222.45;1837968;78;25381;-73
2022/01/17 04:28:00;;;;;;;37.03;20.72;;;;;;;2.71;93.98;99204.58;1838190;78;25596;-73
2022/01/17 04:30:29;;;;;;;40.10;20.05;;;;;;;2.70;94.17;99211.54;1838149;78;25634;-73
2022/01/17 04:32:57;;;;;;;40.03;21.50;;;;;;;2.67;94.39;99201.42;1838081;78;25435;-73
2022/01/17 04:35:26;;;;;;;37.28;20.12;;;;;;;2.63;94.63;99181.17;1838057;78;27315;-73
2022/01/17 04:38:09;;;;;;;37.83;20.10;;;;;;;2.61;94.52;99166.77;1842479;77;25639;-73
2022/01/17 04:40:38;;;;;;;39.80;21.07;;;;;;;2.58;94.92;99165.98;1838116;78;25372;-73
2022/01/17 04:43:16;;;;;;;40.20;20.08;;;;;;;2.56;95.40;99172.16;1815376;78;25619;-73
2022/01/17 04:45:36;;;;;;;37.03;19.37;;;;;;;2.53;95.79;99148.69;1836712;77;25548;-73
2022/01/17 04:48:03;;;;;;;33.18;17.90;;;;;;;2.51;95.51;99147.39;1838068;78;27313;-73
2022/01/17 04:50:30;;;;;;;39.08;20.00;;;;;;;2.50;95.83;99136.45;1814560;78;25581;-74
2022/01/17 04:53:00;;;;;;;37.67;19.50;;;;;;;2.50;96.27;99142.58;1838033;78;25375;-74
2022/01/17 04:55:27;;;;;;;34.10;20.32;;;;;;;2.50;96.15;99131.11;1838039;78;25619;-74
2022/01/17 04:57:56;;;;;;;38.98;19.50;;;;;;;2.48;96.44;99136.73;1838045;77;25642;-74
2022/01/17 05:00:26;;;;;;;33.67;18.20;;;;;;;2.48;96.46;99129.27;1838160;78;27422;-74
2022/01/17 05:02:54;;;;;;;31.52;17.95;;;;;;;2.47;96.38;99128.48;1837955;78;25594;-75
2022/01/17 05:05:21;;;;;;;38.02;19.00;;;;;;;2.47;97.04;99116.99;1840002;77;25624;-75
2022/01/17 05:07:48;;;;;;;38.55;19.67;;;;;;;2.49;97.20;99130.88;1846813;77;25605;-75
2022/01/17 05:10:18;;;;;;;32.70;17.20;;;;;;;2.50;97.16;99119.89;1791628;80;25618;-75
2022/01/17 05:12:45;;;;;;;28.77;16.87;;;;;;;2.53;96.89;99095.84;1789896;79;27337;-75
2022/01/17 05:15:27;;;;;;;33.78;15.72;;;;;;;2.58;96.72;99076.55;1791478;80;25591;-75
2022/01/17 05:20:32;;;;;;;25.80;14.95;;;;;;;2.64;95.96;99079.16;1823984;78;25637;-75
2022/01/17 05:22:58;;;;;;;30.90;16.12;;;;;;;2.67;95.90;99079.93;1823973;78;25541;-75
2022/01/17 05:25:25;;;;;;;31.48;15.40;;;;;;;2.70;95.80;99075.36;1823987;78;27426;-75
2022/01/17 05:27:51;;;;;;;28.02;14.07;;;;;;;2.71;95.63;99072.95;1816791;78;25501;-78
2022/01/17 05:30:21;;;;;;;25.95;13.15;;;;;;;2.74;95.52;99078.52;1824024;78;25455;-74
2022/01/17 05:32:50;;;;;;;27.15;13.98;;;;;;;2.79;95.12;99089.13;1790409;78;25779;-75
2022/01/17 05:35:18;;;;;;;27.70;13.88;;;;;;;2.84;94.67;99032.72;1824176;78;25541;-75
2022/01/17 05:37:47;;;;;;;23.07;12.78;;;;;;;2.87;94.82;99030.81;1824026;78;27435;-75
2022/01/17 05:40:16;;;;;;;22.22;12.00;;;;;;;2.89;94.59;99004.05;1823917;78;25697;-75
2022/01/17 05:42:44;;;;;;;22.02;12.35;;;;;;;2.89;94.36;98978.67;1824128;78;25402;-75
2022/01/17 05:45:13;;;;;;;24.25;11.95;;;;;;;2.91;93.91;98995.75;1823919;78;25604;-75
2022/01/17 05:47:39;;;;;;;22.58;12.13;;;;;;;2.94;93.54;99022.67;1824104;78;25452;-75
2022/01/17 05:50:07;;;;;;;21.10;12.25;;;;;;;2.98;93.59;98999.66;1824049;78;27257;-75
2022/01/17 05:52:34;;;;;;;20.70;11.00;;;;;;;3.01;93.48;99005.50;1823907;78;25683;-75
2022/01/17 05:55:03;;;;;;;21.95;12.45;;;;;;;3.02;92.49;99019.13;1823988;77;25524;-75
2022/01/17 05:57:29;;;;;;;21.30;12.37;;;;;;;3.05;93.12;98985.94;1824115;78;26129;-75
2022/01/17 05:59:58;;;;;;;22.95;12.50;;;;;;;3.08;92.68;98994.71;1824045;78;25536;-75
2022/01/17 06:02:25;;;;;;;17.55;11.12;;;;;;;3.10;92.67;98995.73;1824090;78;27923;-75
2022/01/17 06:04:51;;;;;;;18.40;10.55;;;;;;;3.12;92.50;98969.54;1823864;78;25427;-77
2022/01/17 06:07:18;;;;;;;22.45;12.30;;;;;;;3.13;91.27;98912.33;1810317;78;25597;-75
2022/01/17 06:09:45;;;;;;;19.70;10.90;;;;;;;3.17;91.79;98946.74;1777502;79;25825;-76
2022/01/17 06:12:13;;;;;;;21.85;11.33;;;;;;;3.19;91.63;98983.31;1809057;79;25574;-75
2022/01/17 06:14:39;;;;;;;17.52;10.85;;;;;;;3.22;91.78;98943.17;1809002;79;27493;-75
2022/01/17 06:17:07;;;;;;;17.92;10.43;;;;;;;3.22;91.75;98926.62;1808997;79;25384;-75
2022/01/17 06:19:34;;;;;;;19.60;11.05;;;;;;;3.24;91.13;98927.11;1804134;79;25395;-75
2022/01/17 06:22:00;;;;;;;15.38;10.08;;;;;;;3.27;90.64;98904.34;1808996;79;26182;-76
2022/01/17 06:24:27;;;;;;;17.85;10.48;;;;;;;3.27;90.95;98910.50;1809023;79;25450;-75
2022/01/17 06:26:53;;;;;;;16.37;9.95;;;;;;;3.30;91.07;98889.05;1809016;79;27350;-76
2022/01/17 06:29:19;;;;;;;17.15;8.95;;;;;;;3.30;90.01;98891.20;1808821;79;25734;-75
2022/01/17 06:31:46;;;;;;;15.70;8.68;;;;;;;3.31;90.44;98871.39;1809051;78;25543;-75
2022/01/17 06:34:13;;;;;;;13.50;7.62;;;;;;;3.32;90.06;98874.33;1804175;78;25709;-75
2022/01/17 06:36:43;;;;;;;17.87;9.55;;;;;;;3.30;89.86;98825.73;1809048;79;25443;-76
2022/01/17 06:39:14;;;;;;;13.78;8.10;;;;;;;3.31;89.93;98847.34;1809151;79;27318;-76
2022/01/17 06:41:41;;;;;;;14.53;8.50;;;;;;;3.31;90.38;98821.95;1809009;79;25616;-75
2022/01/17 06:44:07;;;;;;;12.40;8.23;;;;;;;3.30;90.44;98830.26;1809077;79;25372;-76
2022/01/17 06:46:34;;;;;;;16.97;10.00;;;;;;;3.28;90.56;98861.28;1809082;78;26133;-76
2022/01/17 06:49:01;;;;;;;13.15;8.43;;;;;;;3.29;90.43;98802.75;1809058;79;25575;-75
2022/01/17 06:51:28;;;;;;;11.25;7.37;;;;;;;3.27;90.57;98804.94;1809026;79;27384;-75
2022/01/17 06:53:54;;;;;;;12.53;8.50;;;;;;;3.26;90.58;98789.98;1808932;78;25444;-75
2022/01/17 06:56:21;;;;;;;13.20;8.23;;;;;;;3.26;90.75;98797.20;1809016;78;25457;-75
2022/01/17 06:58:49;;;;;;;13.45;8.15;;;;;;;3.23;90.31;98745.13;1808977;79;25616;-76
2022/01/17 07:01:18;;;;;;;13.05;8.35;;;;;;;3.25;90.47;98786.26;1809025;78;25550;-76
2022/01/17 07:03:45;;;;;;;15.93;8.45;;;;;;;3.26;90.37;98761.13;1809109;79;27351;-76
2022/01/17 07:06:11;;;;;;;14.65;8.25;;;;;;;3.26;90.14;98777.17;1776194;80;25558;-76
2022/01/17 07:08:38;;;;;;;15.60;7.22;;;;;;;3.27;90.18;98804.12;1791539;80;25381;-76
2022/01/17 07:11:05;;;;;;;12.50;7.30;;;;;;;3.31;90.04;98786.42;1758363;80;25636;-76
2022/01/17 07:13:32;;;;;;;11.70;7.25;;;;;;;3.32;90.05;98799.48;1791534;80;25459;-76
2022/01/17 07:16:00;;;;;;;11.95;6.70;;;;;;;3.35;89.75;98812.79;1791453;80;28089;-75
2022/01/17 07:18:26;;;;;;;11.40;6.83;;;;;;;3.37;90.13;98818.63;1791360;80;25568;-75
2022/01/17 07:20:53;;;;;;;13.35;7.55;;;;;;;3.39;90.00;98837.04;1791505;80;25408;-75
2022/01/17 07:23:19;;;;;;;8.58;6.12;;;;;;;3.41;89.26;98784.09;1791368;80;26325;-75
2022/01/17 07:25:46;;;;;;;11.22;6.42;;;;;;;3.43;89.28;98776.56;1791495;80;25629;-75
2022/01/17 07:28:14;;;;;;;10.00;6.00;;;;;;;3.44;89.47;98778.95;1791498;80;27379;-75
2022/01/17 07:30:41;;;;;;;10.30;6.00;;;;;;;3.44;89.08;98791.50;1791496;80;25445;-75
2022/01/17 07:33:08;;;;;;;11.12;6.08;;;;;;;3.46;89.37;98751.36;1791649;80;25572;-75
2022/01/17 07:35:36;;;;;;;10.63;5.95;;;;;;;3.48;89.29;98776.47;1791598;80;25589;-75
2022/01/17 07:38:04;;;;;;;12.40;5.60;;;;;;;3.47;89.01;98778.33;1791691;80;25472;-75
2022/01/17 07:40:32;;;;;;;7.20;5.20;;;;;;;3.48;88.78;98738.48;1791638;80;27338;-76
2022/01/17 07:42:58;;;;;;;8.60;5.35;;;;;;;3.46;89.37;98715.27;1791490;80;25392;-75
2022/01/17 07:45:27;;;;;;;8.43;5.42;;;;;;;3.43;89.68;98699.05;1791684;80;25441;-75
2022/01/17 07:50:24;;;;;;;7.20;4.85;;;;;;;3.36;90.00;98672.17;1791636;80;25628;-75
2022/01/17 07:52:52;;;;;;;11.80;8.35;;;;;;;3.34;90.28;98632.94;1791640;80;27316;-75
2022/01/17 07:55:21;;;;;;;11.43;4.65;;;;;;;3.33;90.22;98626.55;1791596;80;25444;-73
2022/01/17 07:57:48;;;;;;;9.83;4.90;;;;;;;3.33;90.21;98554.39;1791906;80;25612;-76
2022/01/17 08:00:22;;;;;;;8.98;4.30;;;;;;;3.33;90.41;98621.20;1791607;80;25655;-76
2022/01/17 08:02:50;;;;;;;7.50;4.47;;;;;;;3.33;90.42;98585.91;1760328;80;25392;-76
2022/01/17 08:05:17;;;;;;;10.20;4.80;;;;;;;3.32;90.55;98569.65;1790689;80;27039;-76
2022/01/17 08:07:45;;;;;;;7.00;4.10;;;;;;;3.34;90.76;98566.13;1803371;79;25772;-75
2022/01/17 08:10:13;;;;;;;10.75;5.10;;;;;;;3.34;90.87;98565.34;1806689;78;25435;-76
2022/01/17 08:12:43;;;;;;;11.40;5.22;;;;;;;3.33;91.15;98553.84;1806466;79;26258;-76
2022/01/17 08:15:11;;;;;;;8.13;4.67;;;;;;;3.31;91.34;98565.38;1806554;79;25616;-76
2022/01/17 08:17:39;;;;;;;9.75;5.00;;;;;;;3.32;91.27;98568.31;1806607;79;27399;-78
2022/01/17 08:20:07;;;;;;;9.23;4.90;;;;;;;3.30;91.61;98574.52;1806391;79;25694;-75
2022/01/17 08:22:34;;;;;;;7.05;4.70;;;;;;;3.29;91.88;98580.16;1806584;79;25394;-75
2022/01/17 08:25:00;;;;;;;8.75;4.58;;;;;;;3.28;92.00;98567.87;1806506;79;25599;-75
2022/01/17 08:27:28;;;;;;;6.20;4.65;;;;;;;3.26;92.51;98564.16;1806343;79;25630;-76
2022/01/17 08:29:57;;;;;;;9.25;5.37;;;;;;;3.24;92.71;98574.38;1806651;78;27887;-77
2022/01/17 08:32:27;;;;;;;11.45;4.97;;;;;;;3.24;92.74;98544.20;1806415;79;25732;-77
2022/01/17 08:34:52;;;;;;;10.17;5.17;;;;;;;3.22;92.97;98537.81;1806435;79;25744;-76
2022/01/17 08:37:18;;;;;;;7.42;4.62;;;;;;;3.21;93.34;98540.79;1806578;79;26246;-77
2022/01/17 08:39:46;;;;;;;11.95;4.75;;;;;;;3.21;93.35;98518.08;1806752;79;25448;-77
2022/01/17 08:42:12;;;;;;;7.92;4.37;;;;;;;3.22;93.28;98515.63;1806203;79;27937;-77
2022/01/17 08:44:39;;;;;;;10.75;4.75;;;;;;;3.21;93.25;98509.50;1806416;79;25468;-77
2022/01/17 08:47:06;;;;;;;7.92;4.12;;;;;;;3.23;93.16;98516.66;1806608;79;25384;-77
2022/01/17 08:49:33;;;;;;;7.58;4.45;;;;;;;3.26;92.74;98496.02;1806354;78;26146;-76
2022/01/17 08:51:59;;;;;;;7.25;3.42;;;;;;;3.30;92.59;98486.84;1806666;79;25652;-75
2022/01/17 08:54:26;;;;;;;7.92;3.62;;;;;;;3.32;92.51;98492.14;1775343;79;27879;-76
2022/01/17 08:56:52;;;;;;;7.70;3.65;;;;;;;3.34;92.50;98575.47;1806261;79;25707;-76
2022/01/17 09:00:31;;;;;;;3.47;1.67;;;;;;;3.34;92.54;98735.05;1806323;79;25716;-76
2022/01/17 09:02:54;;;;;;;1.67;0.72;;;;;;;3.25;89.77;98787.08;1804491;79;25928;-73
2022/01/17 09:05:20;;;;;;;0.62;0.55;;;;;;;2.58;86.15;98794.13;1806515;79;25597;-74
2022/01/17 09:07:47;;;;;;;0.70;0.40;;;;;;;2.19;86.21;98809.39;1808131;78;27364;-73
2022/01/17 09:10:14;;;;;;;0.78;0.35;;;;;;;1.90;86.58;98804.75;1808300;79;25581;-74
2022/01/17 09:12:40;;;;;;;0.75;0.40;;;;;;;1.68;87.13;98823.42;1808960;79;25534;-73
2022/01/17 09:15:07;;;;;;;1.52;0.75;;;;;;;1.48;87.66;98835.92;1808884;78;26290;-73
2022/01/17 09:17:34;;;;;;;0.88;0.80;;;;;;;1.32;88.04;98851.81;1808749;79;25456;-73
2022/01/17 09:20:00;;;;;;;1.00;0.60;;;;;;;1.16;88.47;98853.03;1777227;79;27318;-74
2022/01/17 09:22:29;;;;;;;1.05;0.72;;;;;;;1.00;88.82;98835.87;1777365;79;25607;-75
2022/01/17 09:24:56;;;;;;;1.72;0.60;;;;;;;0.86;88.95;98860.25;1808902;79;25654;-75
2022/01/17 09:27:22;;;;;;;0.78;0.70;;;;;;;0.74;89.15;98861.39;1808723;79;25615;-74
2022/01/17 09:29:49;;;;;;;1.47;0.60;;;;;;;0.65;89.64;98872.39;1809107;78;25592;-75
2022/01/17 09:32:15;;;;;;;12.98;5.42;;;;;;;0.57;89.86;98878.30;1808937;79;28001;-75
2022/01/17 09:34:44;;;;;;;2.17;1.67;;;;;;;0.52;90.17;98865.81;1808548;78;25704;-74
2022/01/17 09:37:11;;;;;;;1.70;1.40;;;;;;;0.49;90.48;98876.22;1809120;78;25670;-75
2022/01/17 09:39:38;;;;;;;1.20;1.07;;;;;;;0.46;90.74;98892.22;1808782;79;26183;-74
2022/01/17 09:42:08;;;;;;;3.85;1.25;;;;;;;0.44;90.80;98890.89;1776954;79;25395;-74
2022/01/17 09:44:36;;;;;;;5.60;1.45;;;;;;;0.42;90.89;98884.52;1808533;79;27916;-75
2022/01/17 09:47:09;;;;;;;3.65;1.60;;;;;;;0.39;90.94;98877.08;1777584;79;25697;-75
2022/01/17 09:49:42;;;;;;;3.15;1.55;;;;;;;0.38;90.96;98878.71;1808748;78;25644;-75
2022/01/17 09:54:45;;;;;;;3.27;2.10;;;;;;;0.34;91.08;98868.62;1808478;79;25618;-74
2022/01/17 09:57:14;;;;;;;2.05;1.70;;;;;;;0.34;91.10;98855.83;1808804;79;27311;-74
2022/01/17 09:59:41;;;;;;;3.10;2.00;;;;;;;0.35;91.38;98868.07;1808715;79;25753;-74
2022/01/17 10:02:11;;;;;;;3.70;2.33;;;;;;;0.35;91.31;98838.27;1808471;79;25451;-74
2022/01/17 10:04:38;;;;;;;2.98;2.47;;;;;;;0.33;91.22;98839.08;1808763;79;25617;-75
2022/01/17 10:07:06;;;;;;;3.08;2.15;;;;;;;0.33;91.11;98867.02;1803811;78;25531;-74
2022/01/17 10:09:35;;;;;;;3.05;2.30;;;;;;;0.33;91.21;98860.91;1808502;79;27907;-75
2022/01/17 10:12:16;;;;;;;4.28;2.30;;;;;;;0.35;91.15;98875.50;1808722;79;25637;-73
2022/01/17 10:14:57;;;;;;;3.30;2.00;;;;;;;0.34;91.07;98855.31;1808698;79;25718;-74
2022/01/17 10:17:17;;;;;;;4.20;1.85;;;;;;;0.35;91.12;98866.20;1806360;79;25808;-75
2022/01/17 10:19:45;;;;;;;3.83;1.93;;;;;;;0.35;90.88;98875.50;1809118;79;25609;-74
2022/01/17 10:22:19;;;;;;;4.08;2.00;;;;;;;0.33;90.87;98882.97;1777417;79;27472;-74
2022/01/17 10:25:05;;;;;;;3.05;1.87;;;;;;;0.32;90.71;98892.04;1777239;79;25717;-75
2022/01/17 10:30:26;;;;;;;3.70;2.50;;;;;;;0.33;90.87;98903.47;1808815;79;25616;-75
2022/01/17 10:35:33;;;;;;;3.25;2.60;;;;;;;0.30;90.42;98904.80;1707437;83;27975;-75
2022/01/17 10:38:11;;;;;;;5.37;2.47;;;;;;;0.31;90.69;98925.02;1700939;83;25620;-77
2022/01/17 10:40:45;;;;;;;8.08;3.35;;;;;;;0.30;90.57;98920.75;1699854;84;25771;-76
2022/01/17 10:43:34;;;;;;;6.80;4.35;;;;;;;0.34;90.75;98908.52;1700008;84;26156;-75
2022/01/17 10:46:00;;;;;;;7.70;3.30;;;;;;;0.39;90.81;98908.22;1699513;84;25848;-75
2022/01/17 10:48:39;;;;;;;4.95;3.22;;;;;;;0.44;90.77;98920.16;1699735;84;27493;-75
2022/01/17 10:51:07;;;;;;;;;;;;;;;0.49;90.98;98932.09;1702616;84;25507;-77
2022/01/17 10:53:36;;;;;;;6.95;3.00;;;;;;;0.58;90.63;98945.61;1699974;84;25647;-75
2022/01/17 10:56:07;;;;;;;3.73;2.83;;;;;;;0.61;90.54;98955.16;1654434;84;25754;-77
2022/01/17 10:58:33;;;;;;;8.50;3.00;;;;;;;0.69;90.31;98951.92;1652067;86;25534;-77
2022/01/17 11:01:11;;;;;;;4.70;2.93;;;;;;;0.78;90.38;98947.35;1621011;88;27313;-75
2022/01/17 11:03:41;;;;;;;6.92;2.50;;;;;;;0.84;90.07;98960.35;1606365;88;25791;-75
2022/01/17 11:06:12;;;;;;;5.65;2.87;;;;;;;0.88;89.78;98977.89;1590744;89;25619;-78
2022/01/17 11:08:40;;;;;;;5.45;2.80;;;;;;;0.92;89.52;98993.59;1598938;89;26153;-79
2022/01/17 11:11:10;;;;;;;9.13;3.05;;;;;;;0.95;89.20;98997.01;1599761;89;25569;-77
2022/01/17 11:13:42;;;;;;;6.53;3.20;;;;;;;0.98;89.05;99003.66;1692749;84;27532;-77
2022/01/17 11:16:11;;;;;;;6.35;2.95;;;;;;;0.99;88.69;99003.39;1738779;82;25679;-79
2022/01/17 11:18:36;;;;;;;9.20;3.00;;;;;;;1.18;90.42;99002.73;1739093;82;25709;-76
2022/01/17 11:21:10;;;;;;;7.37;3.20;;;;;;;1.91;92.13;99003.66;1739042;82;25702;-77
2022/01/17 11:23:36;;;;;;;9.15;3.50;;;;;;;2.63;92.89;99010.30;1738750;82;25468;-77
2022/01/17 11:26:05;;;;;;;10.15;3.52;;;;;;;3.52;93.05;99011.38;1739055;82;27316;-76
2022/01/17 11:28:34;;;;;;;11.53;4.50;;;;;;;4.59;95.74;98999.73;1744367;79;25424;-76
2022/01/17 11:31:08;;;;;;;13.10;6.07;;;;;;;5.53;91.57;99016.08;1830117;77;25398;-73
2022/01/17 11:33:35;;;;;;;16.48;7.03;;;;;;;6.03;86.73;99007.05;1772098;80;25765;-73
2022/01/17 11:36:04;;;;;;;14.07;5.28;;;;;;;6.49;84.59;99017.87;1786660;80;25636;-73
2022/01/17 11:38:42;;;;;;;10.50;4.78;;;;;;;6.75;81.80;99004.48;1739233;82;27314;-73
2022/01/17 11:41:28;;;;;;;14.50;5.30;;;;;;;7.06;78.64;99018.33;1753101;81;25608;-73
2022/01/17 11:43:59;;;;;;;10.35;4.72;;;;;;;7.29;78.39;99029.73;1769917;81;25772;-72
2022/01/17 11:46:44;;;;;;;8.28;4.03;;;;;;;7.82;79.68;99056.78;1769384;81;26332;-74
2022/01/17 11:49:14;;;;;;;6.03;2.87;;;;;;;8.12;78.31;99070.87;1769596;81;25673;-73
2022/01/17 11:51:46;;;;;;;8.35;3.30;;;;;;;8.38;72.39;99061.37;1744342;81;27295;-74
2022/01/17 11:54:20;;;;;;;11.22;4.03;;;;;;;8.08;70.55;99051.09;1769403;81;25780;-74
2022/01/17 11:56:59;;;;;;;8.23;3.35;;;;;;;7.65;71.71;99065.69;1732876;81;25410;-72
2022/01/17 11:59:42;;;;;;;8.35;3.60;;;;;;;7.24;71.12;99089.84;1769538;81;25636;-73